KPNE/PNE METAR and TAF weather

Enter ICAO airport designator
Station Type Date Time Source
KPNE METAR 2022/01/18 06:54 UTC NOAA

KPNE 180654Z 29016G21KT 10SM CLR M01/M12 A2966 RMK AO2 PK WND 28027/0555 PRESRR SLP043 T10061117


Station Type Date Time Source
KPNE Decoded METAR 2022/01/18 06:54 UTC NOAA

N.E. PHILADELPHIA AIRPORT, PA, United States (KPNE) 40-05N 075-01W 28M
Jan 18, 2022 - 01:54 AM EST / 2022.01.18 0654 UTC
Wind: from the WNW (290 degrees) at 18 MPH (16 KT) gusting to 24 MPH (21 KT):0
Visibility: 10 mile(s):0
Sky conditions: clear
Temperature: 30.9 F (-0.6 C)
Windchill: 19 F (-7 C):1
Dew Point: 10.9 F (-11.7 C)
Relative Humidity: 42%
Pressure (altimeter): 29.66 in. Hg (1004 hPa)
Pressure tendency: rising rapidly
ob: KPNE 180654Z 29016G21KT 10SM CLR M01/M12 A2966 RMK AO2 PK WND 28027/0555 PRESRR SLP043 T10061117
cycle: 7

Station Type Date Time Source
KPNE TAF 2022/01/18 06:27 UTC NOAA

TAF KPNE 180524Z 1806/1906 29017G27KT P6SM BKN050
FM181200 30012G22KT P6SM BKN050
FM182200 28010KT P6SM BKN200
FM190100 27005KT P6SM BKN200

Example: see airport list